createdAt,value
2022-08-22T00:00:13.865Z,100406.16
2022-08-22T00:03:11.931Z,100399.13
2022-08-22T00:03:12.734Z,100406.53
2022-08-22T00:06:01.307Z,100408.25
2022-08-22T00:08:41.229Z,100410.75
2022-08-22T00:11:28.582Z,100399.84
2022-08-22T00:14:10.908Z,100399.84
2022-08-22T00:17:00.478Z,100393.81
2022-08-22T00:19:30.602Z,100393.81
2022-08-22T00:21:58.027Z,100390.13
2022-08-22T00:24:30.680Z,100380.84
2022-08-22T00:27:17.384Z,100378.09
2022-08-22T00:30:12.063Z,100382.38
2022-08-22T00:32:47.279Z,100382.19
2022-08-22T00:35:34.917Z,100378.34
2022-08-22T00:38:09.352Z,100383.56
2022-08-22T00:41:27.526Z,100385.09
2022-08-22T00:44:24.157Z,100384.91
2022-08-22T00:47:26.606Z,100380.84
2022-08-22T00:50:26.339Z,100381.00
2022-08-22T00:53:12.152Z,100390.75
2022-08-22T00:55:45.296Z,100382.00
2022-08-22T00:58:24.353Z,100389.41
2022-08-22T01:01:06.834Z,100383.03
2022-08-22T01:04:23.513Z,100394.00
2022-08-22T01:06:53.813Z,100391.38
2022-08-22T01:09:58.538Z,100390.28
2022-08-22T01:12:50.676Z,100391.81
2022-08-22T01:15:25.826Z,100390.56
2022-08-22T01:18:37.820Z,100395.38
2022-08-22T01:21:26.761Z,100394.34
2022-08-22T01:24:24.898Z,100396.84
2022-08-22T01:27:07.376Z,100395.63
2022-08-22T01:30:03.936Z,100400.06
2022-08-22T01:32:31.936Z,100395.03
2022-08-22T01:35:36.060Z,100391.75
2022-08-22T01:38:21.910Z,100401.63
2022-08-22T01:41:00.745Z,100394.63
2022-08-22T01:43:58.640Z,100393.25
2022-08-22T01:47:06.836Z,100393.66
2022-08-22T01:49:33.885Z,100390.34
2022-08-22T01:52:10.310Z,100389.94
2022-08-22T01:54:44.564Z,100390.53
2022-08-22T01:57:13.602Z,100392.66
2022-08-22T01:59:44.236Z,100389.38
2022-08-22T02:02:23.981Z,100389.63
2022-08-22T02:05:09.483Z,100386.63
2022-08-22T02:08:18.216Z,100380.84
2022-08-22T02:10:59.866Z,100379.69
2022-08-22T02:13:35.779Z,100382.78
2022-08-22T02:16:16.724Z,100373.91
2022-08-22T02:18:58.565Z,100378.22
2022-08-22T02:22:00.224Z,100369.28
2022-08-22T02:24:58.393Z,100370.41
2022-08-22T02:28:00.611Z,100380.66
2022-08-22T02:31:00.335Z,100376.59
2022-08-22T02:33:45.912Z,100367.88
2022-08-22T02:36:26.268Z,100370.78
2022-08-22T02:39:05.941Z,100377.38
2022-08-22T02:41:45.960Z,100378.34
2022-08-22T02:44:20.522Z,100370.59
2022-08-22T02:46:56.206Z,100373.50
2022-08-22T02:49:43.785Z,100378.13
2022-08-22T02:52:41.400Z,100384.38
2022-08-22T02:55:39.488Z,100382.63
2022-08-22T02:58:11.665Z,100380.91
2022-08-22T03:00:59.047Z,100383.41
2022-08-22T03:03:31.815Z,100377.56
2022-08-22T03:06:05.581Z,100378.72
2022-08-22T03:08:36.349Z,100383.81
2022-08-22T03:11:11.941Z,100382.63
2022-08-22T03:14:00.578Z,100377.56
2022-08-22T03:16:40.546Z,100394.09
2022-08-22T03:19:22.530Z,100382.88
2022-08-22T03:22:02.827Z,100385.34
2022-08-22T03:25:05.185Z,100388.06
2022-08-22T03:27:42.384Z,100394.50
2022-08-22T03:30:36.924Z,100388.91
2022-08-22T03:33:17.928Z,100380.19
2022-08-22T03:35:45.156Z,100385.63
2022-08-22T03:38:47.826Z,100387.56
2022-08-22T03:41:52.649Z,100387.75
2022-08-22T03:44:35.521Z,100387.50
2022-08-22T03:47:17.757Z,100393.09
2022-08-22T03:49:50.780Z,100392.91
2022-08-22T03:53:05.581Z,100386.13
2022-08-22T03:56:19.952Z,100382.00
2022-08-22T03:59:22.493Z,100379.84
2022-08-22T04:02:27.503Z,100381.97
2022-08-22T04:05:15.303Z,100392.44
2022-08-22T04:08:03.137Z,100385.25
2022-08-22T04:10:51.822Z,100385.44
2022-08-22T04:13:24.850Z,100388.53
2022-08-22T04:16:07.188Z,100397.06
2022-08-22T04:18:43.301Z,100398.59
2022-08-22T04:22:00.140Z,100394.72
2022-08-22T04:24:55.355Z,100397.44
2022-08-22T04:27:43.767Z,100404.00
2022-08-22T04:30:16.764Z,100400.91
2022-08-22T04:33:11.807Z,100408.31
2022-08-22T04:35:52.360Z,100410.09
2022-08-22T04:38:28.840Z,100413.06
2022-08-22T04:41:04.871Z,100409.91
2022-08-22T04:43:45.316Z,100420.00
2022-08-22T04:46:37.070Z,100414.59
2022-08-22T04:49:24.669Z,100429.00
2022-08-22T04:52:05.900Z,100420.81
2022-08-22T04:54:51.572Z,100430.53
2022-08-22T04:57:44.188Z,100430.94
2022-08-22T05:00:12.203Z,100427.44
2022-08-22T05:02:48.320Z,100436.16
2022-08-22T05:05:23.704Z,100446.25
2022-08-22T05:07:58.679Z,100444.84
2022-08-22T05:10:27.816Z,100445.63
2022-08-22T05:13:23.915Z,100450.31
2022-08-22T05:15:57.181Z,100456.31
2022-08-22T05:18:29.609Z,100450.88
2022-08-22T05:21:01.281Z,100456.13
2022-08-22T05:23:58.811Z,100458.84
2022-08-22T05:26:28.389Z,100464.31
2022-08-22T05:29:02.952Z,100465.66
2022-08-22T05:31:36.124Z,100477.06
2022-08-22T05:34:04.792Z,100478.97
2022-08-22T05:36:38.673Z,100480.56
2022-08-22T05:39:17.167Z,100473.53
2022-08-22T05:41:45.140Z,100475.69
2022-08-22T05:44:28.363Z,100481.72
2022-08-22T05:47:18.953Z,100489.50
2022-08-22T05:50:04.295Z,100491.09
2022-08-22T05:53:01.057Z,100482.00
2022-08-22T05:55:55.527Z,100489.16
2022-08-22T05:58:25.708Z,100493.25
2022-08-22T06:01:16.843Z,100492.25
2022-08-22T06:04:04.755Z,100493.78
2022-08-22T06:06:38.220Z,100510.47
2022-08-22T06:09:34.889Z,100505.03
2022-08-22T06:12:21.706Z,100504.28
2022-08-22T06:15:15.331Z,100507.00
2022-08-22T06:17:51.404Z,100508.34
2022-08-22T06:20:26.473Z,100506.03
2022-08-22T06:23:02.559Z,100509.13
2022-08-22T06:25:33.640Z,100508.72
2022-08-22T06:28:06.504Z,100510.06
2022-08-22T06:30:35.807Z,100508.38
2022-08-22T06:33:12.645Z,100514.38
2022-08-22T06:36:14.005Z,100517.06
2022-08-22T06:39:07.643Z,100526.38
2022-08-22T06:41:40.991Z,100520.97
2022-08-22T06:44:17.796Z,100525.66
2022-08-22T06:46:48.028Z,100515.72
2022-08-22T06:49:16.836Z,100523.50
2022-08-22T06:51:45.268Z,100525.25
2022-08-22T06:54:21.747Z,100523.47
2022-08-22T06:56:52.688Z,100530.88
2022-08-22T06:59:26.178Z,100521.75
2022-08-22T07:02:08.136Z,100529.31
2022-08-22T07:04:37.136Z,100522.50
2022-08-22T07:07:04.554Z,100524.44
2022-08-22T07:09:38.508Z,100521.31
2022-08-22T07:12:20.908Z,100520.69
2022-08-22T07:14:52.206Z,100524.59
2022-08-22T07:17:25.791Z,100539.53
2022-08-22T07:20:23.728Z,100528.69
2022-08-22T07:22:58.863Z,100526.94
2022-08-22T07:25:27.466Z,100529.81
2022-08-22T07:28:21.219Z,100520.88
2022-08-22T07:31:18.245Z,100529.06
2022-08-22T07:33:49.845Z,100530.88
2022-08-22T07:36:22.611Z,100523.69
2022-08-22T07:39:11.164Z,100516.47
2022-08-22T07:42:11.512Z,100526.94
2022-08-22T07:45:01.631Z,100527.16
2022-08-22T07:47:50.532Z,100520.59
2022-08-22T07:50:27.683Z,100528.94
2022-08-22T07:52:59.148Z,100533.19
2022-08-22T07:55:27.604Z,100517.09
2022-08-22T07:58:04.677Z,100520.41
2022-08-22T08:00:32.746Z,100526.97
2022-08-22T08:03:06.396Z,100521.53
2022-08-22T08:05:37.137Z,100524.41
2022-08-22T08:08:15.587Z,100527.28
2022-08-22T08:10:43.216Z,100532.09
2022-08-22T08:13:21.721Z,100519.28
2022-08-22T08:15:51.111Z,100527.44
2022-08-22T08:18:22.233Z,100534.41
2022-08-22T08:20:52.124Z,100529.00
2022-08-22T08:23:23.550Z,100534.28
2022-08-22T08:26:15.893Z,100533.97
2022-08-22T08:28:48.190Z,100529.13
2022-08-22T08:31:38.167Z,100538.38
2022-08-22T08:34:25.876Z,100540.50
2022-08-22T08:36:58.624Z,100533.28
2022-08-22T08:39:35.016Z,100531.31
2022-08-22T08:42:17.720Z,100529.72
2022-08-22T08:45:01.533Z,100533.53
2022-08-22T08:47:45.019Z,100537.16
2022-08-22T08:50:46.326Z,100544.00
2022-08-22T08:53:28.560Z,100525.31
2022-08-22T08:56:25.501Z,100535.38
2022-08-22T08:59:28.053Z,100534.75
2022-08-22T09:02:34.796Z,100528.28
2022-08-22T09:05:24.532Z,100527.31
2022-08-22T09:08:27.663Z,100529.22
2022-08-22T09:11:19.406Z,100538.66
2022-08-22T09:14:07.604Z,100535.19
2022-08-22T09:16:55.101Z,100533.38
2022-08-22T09:20:24.508Z,100537.97
2022-08-22T09:23:16.772Z,100532.34
2022-08-22T09:25:58.545Z,100538.59
2022-08-22T09:28:32.503Z,100530.00
2022-08-22T09:31:21.813Z,100541.75
2022-08-22T09:33:58.320Z,100537.13
2022-08-22T09:36:53.495Z,100536.88
2022-08-22T09:39:33.410Z,100538.66
2022-08-22T09:42:17.605Z,100539.38
2022-08-22T09:45:05.554Z,100536.53
2022-08-22T09:47:44.450Z,100531.13
2022-08-22T09:50:30.953Z,100535.25
2022-08-22T09:53:41.046Z,100518.91
2022-08-22T09:56:20.179Z,100510.44
2022-08-22T09:59:02.849Z,100525.13
2022-08-22T10:02:15.549Z,100521.72
2022-08-22T10:04:51.817Z,100518.25
2022-08-22T10:07:40.545Z,100512.09
2022-08-22T10:10:17.334Z,100512.72
2022-08-22T10:12:53.083Z,100511.00
2022-08-22T10:15:31.132Z,100509.91
2022-08-22T10:18:18.942Z,100510.13
2022-08-22T10:20:55.266Z,100510.13
2022-08-22T10:23:54.128Z,100508.97
2022-08-22T10:26:55.639Z,100503.84
2022-08-22T10:29:47.925Z,100501.94
2022-08-22T10:32:39.285Z,100505.69
2022-08-22T10:35:28.717Z,100498.44
2022-08-22T10:38:12.335Z,100499.91
2022-08-22T10:41:02.981Z,100504.59
2022-08-22T10:43:56.353Z,100503.47
2022-08-22T10:46:36.401Z,100503.38
2022-08-22T10:49:19.447Z,100504.78
2022-08-22T10:51:53.616Z,100507.09
2022-08-22T10:54:20.927Z,100506.59
2022-08-22T10:56:48.096Z,100499.59
2022-08-22T10:59:27.797Z,100497.53
2022-08-22T11:02:42.343Z,100497.03
2022-08-22T11:05:36.550Z,100501.09
2022-08-22T11:08:04.391Z,100488.44
2022-08-22T11:10:31.483Z,100488.72
2022-08-22T11:13:37.367Z,100487.16
2022-08-22T11:16:43.583Z,100482.84
2022-08-22T11:19:27.769Z,100489.31
2022-08-22T11:22:06.658Z,100480.03
2022-08-22T11:25:11.211Z,100474.69
2022-08-22T11:28:05.105Z,100476.56
2022-08-22T11:30:47.518Z,100468.00
2022-08-22T11:33:47.446Z,100455.16
2022-08-22T11:36:42.269Z,100465.16
2022-08-22T11:39:45.352Z,100459.19
2022-08-22T11:42:33.274Z,100449.59
2022-08-22T11:45:05.561Z,100445.97
2022-08-22T11:47:48.319Z,100449.84
2022-08-22T11:50:21.656Z,100438.09
2022-08-22T11:53:19.004Z,100447.19
2022-08-22T11:55:49.534Z,100447.75
2022-08-22T11:58:28.938Z,100442.44
2022-08-22T12:01:20.224Z,100441.34
2022-08-22T12:03:55.721Z,100439.41
2022-08-22T12:06:39.491Z,100436.69
2022-08-22T12:09:47.828Z,100418.28
2022-08-22T12:12:27.916Z,100438.66
2022-08-22T12:15:13.938Z,100433.63
2022-08-22T12:18:08.351Z,100420.00
2022-08-22T12:21:00.026Z,100417.44
2022-08-22T12:24:19.064Z,100412.00
2022-08-22T12:27:18.339Z,100408.63
2022-08-22T12:30:05.007Z,100409.16
2022-08-22T12:33:21.919Z,100402.13
2022-08-22T12:36:22.324Z,100400.16
2022-08-22T12:38:57.886Z,100390.56
2022-08-22T12:41:46.715Z,100395.97
2022-08-22T12:44:18.428Z,100395.50
2022-08-22T12:47:04.502Z,100392.25
2022-08-22T12:49:38.685Z,100390.28
2022-08-22T12:52:16.071Z,100389.06
2022-08-22T12:54:59.131Z,100395.06
2022-08-22T12:57:57.393Z,100390.75
2022-08-22T13:00:35.708Z,100388.25
2022-08-22T13:03:26.880Z,100397.34
2022-08-22T13:06:00.504Z,100383.19
2022-08-22T13:08:46.743Z,100391.34
2022-08-22T13:11:23.063Z,100386.28
2022-08-22T13:13:57.425Z,100379.47
2022-08-22T13:16:34.437Z,100378.72
2022-08-22T13:19:18.882Z,100381.50
2022-08-22T13:21:57.107Z,100384.59
2022-08-22T13:24:38.545Z,100374.56
2022-08-22T13:27:20.355Z,100367.94
2022-08-22T13:29:57.045Z,100366.22
2022-08-22T13:32:48.316Z,100358.19
2022-08-22T13:35:30.441Z,100358.69
2022-08-22T13:38:12.055Z,100363.63
2022-08-22T13:40:46.559Z,100364.50
2022-08-22T13:43:21.025Z,100352.44
2022-08-22T13:46:03.386Z,100354.72
2022-08-22T13:49:00.553Z,100356.41
2022-08-22T13:52:00.193Z,100356.09
2022-08-22T13:54:55.800Z,100349.50
2022-08-22T13:57:51.796Z,100355.16
2022-08-22T14:00:22.368Z,100352.69
2022-08-22T14:02:56.459Z,100348.69
2022-08-22T14:05:34.251Z,100352.53
2022-08-22T14:08:18.486Z,100358.56
2022-08-22T14:11:21.434Z,100361.78
2022-08-22T14:14:01.283Z,100360.88
2022-08-22T14:16:39.489Z,100358.81
2022-08-22T14:19:13.631Z,100364.97
2022-08-22T14:21:53.641Z,100351.38
2022-08-22T14:24:48.336Z,100364.28
2022-08-22T14:28:06.228Z,100358.69
2022-08-22T14:30:49.526Z,100363.19
2022-08-22T14:33:28.193Z,100362.63
2022-08-22T14:36:03.664Z,100370.94
2022-08-22T14:38:46.385Z,100372.28
2022-08-22T14:41:28.829Z,100362.56
2022-08-22T14:44:33.160Z,100371.75
2022-08-22T14:47:04.457Z,100370.66
2022-08-22T14:49:58.459Z,100359.47
2022-08-22T14:52:40.936Z,100360.44
2022-08-22T14:55:24.288Z,100358.22
2022-08-22T14:57:51.605Z,100348.56
2022-08-22T15:00:33.685Z,100355.69
2022-08-22T15:03:16.519Z,100353.16
2022-08-22T15:05:51.589Z,100354.75
2022-08-22T15:08:27.516Z,100351.22
2022-08-22T15:11:17.891Z,100351.22
2022-08-22T15:13:51.353Z,100351.91
2022-08-22T15:16:24.638Z,100342.28
2022-08-22T15:18:52.257Z,100354.28
2022-08-22T15:21:30.429Z,100351.50
2022-08-22T15:24:10.013Z,100341.19
2022-08-22T15:26:50.643Z,100343.72
2022-08-22T15:29:22.349Z,100349.56
2022-08-22T15:31:54.803Z,100350.75
2022-08-22T15:34:33.649Z,100351.09
2022-08-22T15:37:18.076Z,100352.19
2022-08-22T15:40:00.645Z,100352.84
2022-08-22T15:42:40.188Z,100352.13
2022-08-22T15:45:18.624Z,100354.78
2022-08-22T15:47:52.118Z,100362.50
2022-08-22T15:50:54.837Z,100360.97
2022-08-22T15:53:26.517Z,100356.75
2022-08-22T15:56:05.047Z,100358.34
2022-08-22T15:58:39.836Z,100362.69
2022-08-22T16:01:20.521Z,100360.88
2022-08-22T16:04:06.509Z,100358.91
2022-08-22T16:06:49.227Z,100360.53
2022-08-22T16:09:42.631Z,100359.97
2022-08-22T16:12:32.454Z,100355.44
2022-08-22T16:15:01.979Z,100362.38
2022-08-22T16:17:29.076Z,100363.94
2022-08-22T16:20:10.054Z,100371.19
2022-08-22T16:22:59.101Z,100366.41
2022-08-22T16:25:44.865Z,100370.06
2022-08-22T16:28:54.319Z,100374.97
2022-08-22T16:31:28.824Z,100375.16
2022-08-22T16:34:18.752Z,100366.88
2022-08-22T16:37:08.913Z,100371.72
2022-08-22T16:39:41.254Z,100371.19
2022-08-22T16:42:15.681Z,100377.94
2022-08-22T16:45:05.471Z,100376.53
2022-08-22T16:47:32.931Z,100375.00
2022-08-22T16:50:02.792Z,100377.63
2022-08-22T16:52:30.139Z,100370.41
2022-08-22T16:55:24.890Z,100381.81
2022-08-22T16:58:32.493Z,100377.78
2022-08-22T17:01:36.519Z,100368.84
2022-08-22T17:04:09.599Z,100371.94
2022-08-22T17:06:52.002Z,100374.25
2022-08-22T17:09:40.303Z,100376.09
2022-08-22T17:12:44.910Z,100381.34
2022-08-22T17:15:33.271Z,100381.81
2022-08-22T17:18:11.539Z,100377.31
2022-08-22T17:20:48.428Z,100381.63
2022-08-22T17:23:50.371Z,100388.28
2022-08-22T17:26:46.697Z,100382.84
2022-08-22T17:29:26.248Z,100384.41
2022-08-22T17:32:12.159Z,100391.22
2022-08-22T17:34:44.586Z,100393.34
2022-08-22T17:37:41.194Z,100394.44
2022-08-22T17:40:11.558Z,100392.91
2022-08-22T17:43:08.211Z,100403.06
2022-08-22T17:45:42.936Z,100413.88
2022-08-22T17:48:21.503Z,100421.88
2022-08-22T17:50:55.132Z,100421.72
2022-08-22T17:53:41.794Z,100423.72
2022-08-22T17:56:20.357Z,100424.66
2022-08-22T17:59:09.221Z,100422.34
2022-08-22T18:01:48.668Z,100416.31
2022-08-22T18:04:47.383Z,100425.56
2022-08-22T18:07:14.804Z,100432.38
2022-08-22T18:09:56.480Z,100426.63
2022-08-22T18:12:34.291Z,100430.19
2022-08-22T18:15:34.496Z,100437.28
2022-08-22T18:18:13.159Z,100433.25
2022-08-22T18:20:50.076Z,100441.88
2022-08-22T18:23:39.987Z,100432.75
2022-08-22T18:26:23.972Z,100425.78
2022-08-22T18:28:54.436Z,100430.56
2022-08-22T18:31:21.473Z,100433.94
2022-08-22T18:34:01.273Z,100428.72
2022-08-22T18:36:33.707Z,100431.31
2022-08-22T18:39:22.490Z,100434.81
2022-08-22T18:42:08.051Z,100440.09
2022-08-22T18:44:37.996Z,100436.22
2022-08-22T18:47:19.295Z,100440.19
2022-08-22T18:49:49.157Z,100442.22
2022-08-22T18:52:21.168Z,100442.22
2022-08-22T18:55:06.328Z,100436.94
2022-08-22T18:58:01.496Z,100439.13
2022-08-22T19:00:51.876Z,100451.41
2022-08-22T19:03:29.604Z,100458.66
2022-08-22T19:06:18.620Z,100459.88
2022-08-22T19:08:57.926Z,100455.25
2022-08-22T19:11:52.205Z,100457.25
2022-08-22T19:14:34.636Z,100463.09
2022-08-22T19:17:16.653Z,100473.25
2022-08-22T19:20:20.304Z,100474.31
2022-08-22T19:22:51.139Z,100473.81
2022-08-22T19:25:27.974Z,100471.50
2022-08-22T19:28:10.406Z,100473.63
2022-08-22T19:30:45.974Z,100477.59
2022-08-22T19:33:34.623Z,100479.66
2022-08-22T19:36:11.859Z,100476.19
2022-08-22T19:39:00.425Z,100474.34
2022-08-22T19:41:37.797Z,100470.75
2022-08-22T19:44:09.197Z,100465.94
2022-08-22T19:46:39.979Z,100467.91
2022-08-22T19:49:27.335Z,100474.97
2022-08-22T19:52:07.887Z,100473.31
2022-08-22T19:54:53.335Z,100473.16
2022-08-22T19:57:47.431Z,100480.44
2022-08-22T20:01:04.171Z,100486.97
2022-08-22T20:04:00.471Z,100481.66
2022-08-22T20:06:58.363Z,100488.97
2022-08-22T20:10:00.361Z,100485.38
2022-08-22T20:12:46.426Z,100493.06
2022-08-22T20:15:25.198Z,100486.72
2022-08-22T20:20:58.370Z,100492.50
2022-08-22T20:23:30.577Z,100505.09
2022-08-22T20:25:58.938Z,100505.88
2022-08-22T20:28:36.004Z,100510.09
2022-08-22T20:31:07.651Z,100515.06
2022-08-22T20:33:39.142Z,100525.13
2022-08-22T20:36:16.612Z,100532.88
2022-08-22T20:39:03.123Z,100530.31
2022-08-22T20:41:42.793Z,100522.47
2022-08-22T20:44:12.554Z,100526.50
2022-08-22T20:46:46.040Z,100534.25
2022-08-22T20:49:35.041Z,100537.94
2022-08-22T20:52:07.128Z,100535.63
2022-08-22T20:54:38.257Z,100532.69
2022-08-22T20:57:25.688Z,100530.03
2022-08-22T20:59:59.783Z,100528.34
2022-08-22T21:02:39.323Z,100525.06
2022-08-22T21:05:21.504Z,100519.56
2022-08-22T21:08:03.276Z,100512.06
2022-08-22T21:10:50.640Z,100522.22
2022-08-22T21:13:20.439Z,100517.28
2022-08-22T21:16:00.276Z,100523.84
2022-08-22T21:18:40.068Z,100512.84
2022-08-22T21:21:17.816Z,100507.34
2022-08-22T21:23:58.593Z,100513.53
2022-08-22T21:26:39.013Z,100502.03
2022-08-22T21:29:14.869Z,100502.78
2022-08-22T21:31:43.998Z,100503.47
2022-08-22T21:34:23.920Z,100500.13
2022-08-22T21:36:53.456Z,100495.50
2022-08-22T21:39:43.714Z,100497.56
2022-08-22T21:42:21.929Z,100497.63
2022-08-22T21:45:02.548Z,100489.06
2022-08-22T21:47:31.389Z,100493.59
2022-08-22T21:50:02.006Z,100496.69
2022-08-22T21:52:31.964Z,100496.84
2022-08-22T21:55:30.549Z,100481.66
2022-08-22T21:58:06.887Z,100496.34
2022-08-22T22:00:54.849Z,100498.25
2022-08-22T22:03:29.427Z,100499.09
2022-08-22T22:05:59.878Z,100493.34
2022-08-22T22:08:31.521Z,100490.50
2022-08-22T22:11:08.653Z,100503.03
2022-08-22T22:13:35.900Z,100499.78
2022-08-22T22:16:05.494Z,100500.72
2022-08-22T22:18:34.535Z,100504.00
2022-08-22T22:21:02.070Z,100510.59
2022-08-22T22:23:29.805Z,100516.22
2022-08-22T22:26:00.789Z,100515.25
2022-08-22T22:28:38.364Z,100508.97
2022-08-22T22:31:06.430Z,100516.41
2022-08-22T22:33:37.653Z,100509.41
2022-08-22T22:36:09.456Z,100514.00
2022-08-22T22:38:39.180Z,100503.47
2022-08-22T22:41:06.731Z,100492.53
2022-08-22T22:43:34.524Z,100495.88
2022-08-22T22:46:01.667Z,100495.63
2022-08-22T22:48:29.375Z,100500.03
2022-08-22T22:50:56.509Z,100508.97
2022-08-22T22:53:33.755Z,100504.84
2022-08-22T22:56:09.868Z,100502.16
2022-08-22T22:58:37.819Z,100504.66
2022-08-22T23:01:15.223Z,100489.44
2022-08-22T23:03:43.423Z,100482.81
2022-08-22T23:06:17.331Z,100478.53
2022-08-22T23:08:45.011Z,100481.97
2022-08-22T23:11:18.277Z,100484.13
2022-08-22T23:13:45.992Z,100484.22
2022-08-22T23:16:16.117Z,100488.00
2022-08-22T23:18:43.792Z,100483.84
2022-08-22T23:21:15.037Z,100488.53
2022-08-22T23:23:42.580Z,100474.19
2022-08-22T23:26:11.120Z,100473.16
2022-08-22T23:28:38.832Z,100473.69
2022-08-22T23:31:18.153Z,100483.94
2022-08-22T23:33:50.221Z,100489.53
2022-08-22T23:36:20.653Z,100484.41
2022-08-22T23:38:49.196Z,100492.81
2022-08-22T23:41:21.715Z,100493.16
2022-08-22T23:43:51.783Z,100501.97
2022-08-22T23:46:20.656Z,100490.75
2022-08-22T23:48:48.592Z,100483.31
2022-08-22T23:51:22.924Z,100488.47
2022-08-22T23:53:51.564Z,100479.47
2022-08-22T23:56:27.455Z,100473.44
2022-08-22T23:58:54.651Z,100470.06
